»·PEaware :: SWA1123 KLAX-KLAS

SWA1123 :: KLAX-KLAS

FLIGHT INFORMATION

Flight Status: Arrived
Operator:
Southwest Airlines
More flights by this operator :: More flights under this callsign
Pilot: Cody B. (17747)
Aircraft: BOEING 737-800
(B738)
More flights by this aircraft type
Origin: KLAX Los Angeles Intl
United States
Destination: KLAS McCarran Intl
United States
More flights between these airports :: More routes between these airports
Route: +ORCKA2 MISEN KEPEC6
File this flight plan on PilotEdge
Remarks:
Altitude:
(Current/Filed)
29,000ft
Speed:
(Current/Filed)
450kts
Departed: 13-Apr-18 04:49 PM
Arrived: 13-Apr-18 05:55 PM
Distance/Time
Traveled:
205nm/1:06
Distance/Time
To Go:
Arrived

Flight Plot

Page will automatically refresh every two minutes.

Flight plan parsing failed; only flown route is shown


Map Options




Map Legend


Flown Route
Filed Route
Departure Airport
Arrival Airport
Navaid (VOR, NDB)
Fix

Horizontal Profiles

Position Reports

Time Latitude Longitude Heading Altitude Ground
Speed
13-Apr-18 15:50 33.947904 -118.400719 222 115ft 0kts
13-Apr-18 15:51 33.947904 -118.400719 222 115ft 0kts
13-Apr-18 15:52 33.947904 -118.400719 222 115ft 0kts
13-Apr-18 15:53 33.947904 -118.400719 222 115ft 0kts
13-Apr-18 15:54 33.947904 -118.400719 222 115ft 0kts
13-Apr-18 15:55 33.947904 -118.400719 222 115ft 0kts
13-Apr-18 15:56 33.947904 -118.400719 222 115ft 0kts
13-Apr-18 15:57 33.947904 -118.400719 222 115ft 0kts
13-Apr-18 15:58 33.947904 -118.400719 222 115ft 0kts
13-Apr-18 15:59 33.947904 -118.400719 222 115ft 0kts
13-Apr-18 16:00 33.947904 -118.400719 222 115ft 0kts
13-Apr-18 16:01 33.947904 -118.400719 222 115ft 0kts
13-Apr-18 16:02 33.947904 -118.400719 222 115ft 0kts
13-Apr-18 16:03 33.947904 -118.400719 222 115ft 0kts
13-Apr-18 16:04 33.947904 -118.400719 222 115ft 0kts
13-Apr-18 16:05 33.947904 -118.400719 222 115ft 0kts
13-Apr-18 16:06 33.947904 -118.400719 222 115ft 0kts
13-Apr-18 16:10 33.947904 -118.400719 222 115ft 0kts
13-Apr-18 16:11 33.947904 -118.400719 222 115ft 0kts
13-Apr-18 16:12 33.947904 -118.400719 222 115ft 0kts
13-Apr-18 16:13 33.947904 -118.400719 222 115ft 0kts
13-Apr-18 16:14 33.947904 -118.400719 222 115ft 0kts
13-Apr-18 16:15 33.947904 -118.400719 222 115ft 0kts
13-Apr-18 16:16 33.947904 -118.400719 222 115ft 0kts
13-Apr-18 16:17 33.947904 -118.400719 222 115ft 0kts
13-Apr-18 16:18 33.947904 -118.400719 222 115ft 0kts
13-Apr-18 16:19 33.947904 -118.400719 222 115ft 0kts
13-Apr-18 16:20 33.947904 -118.400719 222 115ft 0kts
13-Apr-18 16:21 33.947904 -118.400719 222 115ft 0kts
13-Apr-18 16:22 33.947904 -118.400719 222 115ft 0kts
13-Apr-18 16:23 33.947904 -118.400719 222 115ft 0kts
13-Apr-18 16:24 33.947904 -118.400719 222 115ft 0kts
13-Apr-18 16:25 33.947904 -118.400719 222 115ft 0kts
13-Apr-18 16:26 33.947904 -118.400719 222 115ft 0kts
13-Apr-18 16:27 33.947904 -118.400719 222 115ft 0kts
13-Apr-18 16:28 33.947904 -118.400719 222 115ft 0kts
13-Apr-18 16:29 33.947904 -118.400719 222 115ft 0kts
13-Apr-18 16:30 33.947904 -118.400719 222 115ft 0kts
13-Apr-18 16:31 33.947904 -118.400719 222 115ft 0kts
13-Apr-18 16:32 33.947904 -118.400719 222 115ft 0kts
13-Apr-18 16:33 33.947904 -118.400719 222 115ft 0kts
13-Apr-18 16:34 33.947904 -118.400719 222 115ft 0kts
13-Apr-18 16:35 33.947904 -118.400719 222 115ft 0kts
13-Apr-18 16:36 33.947904 -118.400719 222 115ft 0kts
13-Apr-18 16:37 33.948214 -118.400184 295 113ft 2kts
13-Apr-18 16:38 33.947957 -118.400047 5 113ft 0kts
13-Apr-18 16:39 33.947957 -118.400047 5 113ft 0kts
13-Apr-18 16:40 33.947957 -118.400047 5 113ft 0kts
13-Apr-18 16:41 33.947957 -118.400047 5 113ft 0kts
13-Apr-18 16:42 33.947957 -118.400047 5 113ft 0kts
13-Apr-18 16:43 33.948042 -118.400049 354 113ft 1kts
13-Apr-18 16:44 33.949061 -118.401202 309 115ft 7kts
13-Apr-18 16:45 33.949346 -118.401570 320 116ft 0kts
13-Apr-18 16:46 33.949900 -118.401748 354 116ft 6kts
13-Apr-18 16:47 33.950127 -118.402041 262 116ft 0kts
13-Apr-18 16:48 33.948770 -118.415523 262 123ft 146kts
13-Apr-18 16:49 33.957340 -118.474279 291 2417ft 230kts
13-Apr-18 16:50 33.951625 -118.556095 245 5070ft 270kts
13-Apr-18 16:51 33.884573 -118.596636 197 8541ft 296kts
13-Apr-18 16:52 33.801776 -118.624138 197 11243ft 334kts
13-Apr-18 16:53 33.697201 -118.657638 197 14704ft 355kts
13-Apr-18 16:54 33.600510 -118.687195 197 15266ft 360kts
13-Apr-18 16:55 33.520008 -118.711618 196 15266ft 359kts
13-Apr-18 16:56 33.424348 -118.711148 137 15288ft 367kts
13-Apr-18 16:57 33.426360 -118.610995 27 15283ft 324kts
13-Apr-18 16:58 33.510844 -118.576203 13 16757ft 323kts
13-Apr-18 16:59 33.596965 -118.544438 12 19628ft 327kts
13-Apr-18 17:00 33.684267 -118.512240 10 22015ft 336kts
13-Apr-18 17:01 33.773859 -118.479147 10 23217ft 339kts
13-Apr-18 17:02 33.863504 -118.445869 10 23218ft 338kts
13-Apr-18 17:03 33.952438 -118.406634 29 23313ft 361kts
13-Apr-18 17:04 34.008679 -118.305779 49 25242ft 390kts
13-Apr-18 17:05 34.068208 -118.197058 45 26993ft 393kts
13-Apr-18 17:06 34.129114 -118.088562 45 28470ft 403kts
13-Apr-18 17:07 34.193151 -117.974593 45 29222ft 426kts
13-Apr-18 17:08 34.262117 -117.851813 46 29243ft 453kts
13-Apr-18 17:09 34.332592 -117.725360 45 29232ft 452kts
13-Apr-18 17:10 34.404796 -117.601596 43 29315ft 450kts
13-Apr-18 17:11 34.477852 -117.479054 43 29325ft 450kts
13-Apr-18 17:12 34.550660 -117.356483 43 29325ft 450kts
13-Apr-18 17:13 34.623131 -117.233977 44 29318ft 448kts
13-Apr-18 17:14 34.695508 -117.111144 44 29316ft 447kts
13-Apr-18 17:15 34.767668 -116.988295 43 29306ft 446kts
13-Apr-18 17:16 34.839639 -116.865389 43 29305ft 446kts
13-Apr-18 17:17 34.911352 -116.742377 43 29305ft 446kts
13-Apr-18 17:18 34.981065 -116.619722 44 28503ft 430kts
13-Apr-18 17:19 35.045939 -116.504331 44 26231ft 400kts
13-Apr-18 17:20 35.105948 -116.397924 40 24306ft 366kts
13-Apr-18 17:21 35.176383 -116.309066 35 24322ft 370kts
13-Apr-18 17:22 35.248508 -116.219027 35 24323ft 370kts
13-Apr-18 17:23 35.320361 -116.128943 35 24323ft 370kts
13-Apr-18 17:24 35.391976 -116.038828 35 24321ft 370kts
13-Apr-18 17:25 35.464228 -115.947582 36 22263ft 368kts
13-Apr-18 17:26 35.531963 -115.861655 38 19375ft 356kts
13-Apr-18 17:27 35.597217 -115.778593 39 16435ft 322kts
13-Apr-18 17:28 35.654848 -115.704901 39 13564ft 278kts
13-Apr-18 17:29 35.707657 -115.637690 39 12960ft 272kts
13-Apr-18 17:30 35.762963 -115.575959 15 12971ft 262kts
13-Apr-18 17:31 35.834803 -115.569137 1 12959ft 260kts
13-Apr-18 17:32 35.906715 -115.565679 1 12961ft 260kts
13-Apr-18 17:33 35.974286 -115.541640 44 12859ft 276kts
13-Apr-18 17:34 36.005580 -115.455081 61 11744ft 267kts
13-Apr-18 17:35 36.030596 -115.371472 76 10901ft 266kts
13-Apr-18 17:36 36.025577 -115.279639 90 9790ft 267kts
13-Apr-18 17:37 36.018629 -115.189990 91 8862ft 259kts
13-Apr-18 17:38 36.009481 -115.107688 99 8178ft 240kts
13-Apr-18 17:39 35.952385 -115.070356 198 7271ft 265kts
13-Apr-18 17:40 35.909553 -115.136092 251 6133ft 254kts
13-Apr-18 17:41 35.882252 -115.217346 251 4975ft 257kts
13-Apr-18 17:42 35.857473 -115.293431 251 4961ft 231kts
13-Apr-18 17:43 35.833984 -115.366975 252 5076ft 231kts
13-Apr-18 17:44 35.795826 -115.429641 201 5941ft 246kts
13-Apr-18 17:45 35.742075 -115.399287 98 5580ft 228kts
13-Apr-18 17:46 35.772479 -115.344153 26 5563ft 211kts
13-Apr-18 17:47 35.825367 -115.312623 23 5561ft 211kts
13-Apr-18 17:48 35.878473 -115.282469 23 5561ft 210kts
13-Apr-18 17:49 35.927689 -115.254456 23 5553ft 180kts
13-Apr-18 17:50 35.972226 -115.229029 23 4754ft 172kts
13-Apr-18 17:51 36.013113 -115.205871 22 3705ft 151kts
13-Apr-18 17:52 36.049586 -115.185052 21 2923ft 148kts
13-Apr-18 17:53 36.082470 -115.166328 24 2157ft 90kts
13-Apr-18 17:54 36.088553 -115.161297 113 2128ft 0kts
13-Apr-18 17:55 36.088033 -115.159947 115 2124ft 12kts
13-Apr-18 17:56 36.087397 -115.158256 114 2121ft 0kts
13-Apr-18 17:57 36.087390 -115.158242 118 2121ft 0kts
13-Apr-18 17:58 36.086517 -115.157859 157 2122ft 10kts
13-Apr-18 17:59 36.082722 -115.155657 155 2121ft 16kts
13-Apr-18 18:00 36.081234 -115.152696 104 2115ft 13kts
13-Apr-18 18:01 36.080706 -115.149112 149 2102ft 6kts
13-Apr-18 18:02 36.079789 -115.147376 57 2098ft 4kts
13-Apr-18 18:03 36.079921 -115.147121 57 2096ft 0kts
13-Apr-18 18:04 36.079921 -115.147121 57 2096ft 0kts

Navigation Log

Ident Type
Flight plan parsing failed, navigation log unavailable